createdAt,value
2022-12-06T00:01:07.965Z,32.60
2022-12-06T00:03:35.707Z,34.47
2022-12-06T00:06:11.792Z,36.07
2022-12-06T00:08:39.666Z,32.07
2022-12-06T00:11:09.271Z,39.03
2022-12-06T00:13:37.160Z,35.80
2022-12-06T00:16:07.470Z,45.03
2022-12-06T00:18:36.404Z,37.43
2022-12-06T00:21:11.502Z,46.57
2022-12-06T00:23:44.541Z,47.27
2022-12-06T00:26:11.956Z,39.37
2022-12-06T00:28:39.701Z,43.50
2022-12-06T00:31:10.156Z,56.80
2022-12-06T00:33:37.914Z,49.83
2022-12-06T00:36:14.044Z,63.27
2022-12-06T00:38:40.996Z,53.40
2022-12-06T00:41:11.107Z,39.20
2022-12-06T00:43:38.476Z,60.63
2022-12-06T00:46:08.175Z,47.77
2022-12-06T00:48:35.626Z,44.80
2022-12-06T00:51:02.686Z,45.13
2022-12-06T00:53:30.047Z,44.47
2022-12-06T00:55:57.194Z,46.53
2022-12-06T00:58:24.477Z,52.43
2022-12-06T01:00:51.558Z,50.23
2022-12-06T01:03:19.056Z,48.40
2022-12-06T01:05:49.127Z,50.63
2022-12-06T01:08:18.082Z,50.20
2022-12-06T01:10:53.467Z,60.90
2022-12-06T01:13:20.923Z,49.17
2022-12-06T01:15:47.950Z,49.60
2022-12-06T01:18:14.921Z,46.50
2022-12-06T01:20:41.861Z,55.10
2022-12-06T01:23:08.839Z,49.00
2022-12-06T01:25:36.591Z,49.13
2022-12-06T01:28:04.056Z,48.03
2022-12-06T01:30:31.218Z,45.30
2022-12-06T01:32:58.207Z,57.50
2022-12-06T01:35:25.043Z,50.03
2022-12-06T01:37:51.962Z,48.60
2022-12-06T01:40:18.866Z,46.83
2022-12-06T01:42:45.790Z,47.70
2022-12-06T01:45:12.726Z,52.43
2022-12-06T01:47:42.951Z,47.47
2022-12-06T01:50:21.911Z,45.87
2022-12-06T01:52:56.885Z,47.70
2022-12-06T01:55:27.878Z,51.67
2022-12-06T01:57:59.609Z,47.77
2022-12-06T02:00:26.635Z,50.90
2022-12-06T02:02:57.611Z,47.60
2022-12-06T02:05:25.457Z,43.97
2022-12-06T02:07:53.249Z,41.37
2022-12-06T02:10:20.668Z,56.43
2022-12-06T02:12:52.422Z,63.27
2022-12-06T02:15:22.232Z,43.60
2022-12-06T02:17:57.993Z,47.33
2022-12-06T02:20:32.830Z,46.97
2022-12-06T02:23:27.210Z,48.37
2022-12-06T02:26:33.339Z,40.87
2022-12-06T02:29:24.594Z,40.23
2022-12-06T02:31:51.544Z,39.73
2022-12-06T02:34:30.488Z,39.50
2022-12-06T02:37:23.580Z,35.37
2022-12-06T02:40:06.683Z,42.03
2022-12-06T02:43:03.735Z,40.90
2022-12-06T02:45:35.877Z,40.57
2022-12-06T02:48:04.295Z,43.63
2022-12-06T02:50:42.227Z,44.07
2022-12-06T02:53:14.068Z,44.20
2022-12-06T02:55:45.005Z,43.37
2022-12-06T02:58:12.028Z,41.00
2022-12-06T03:00:42.786Z,38.87
2022-12-06T03:03:31.135Z,41.27
2022-12-06T03:06:01.173Z,40.50
2022-12-06T03:08:49.708Z,36.33
2022-12-06T03:11:17.380Z,35.93
2022-12-06T03:13:51.212Z,41.73
2022-12-06T03:16:35.415Z,36.40
2022-12-06T03:19:12.608Z,33.27
2022-12-06T03:21:44.443Z,39.23
2022-12-06T03:24:14.266Z,34.57
2022-12-06T03:26:45.697Z,40.10
2022-12-06T03:29:16.448Z,35.00
2022-12-06T03:31:44.999Z,37.83
2022-12-06T03:34:23.629Z,34.03
2022-12-06T03:36:53.173Z,32.30
2022-12-06T03:39:30.467Z,35.67
2022-12-06T03:41:59.253Z,31.33
2022-12-06T03:44:26.719Z,30.43
2022-12-06T03:47:02.194Z,31.83
2022-12-06T03:49:54.400Z,35.97
2022-12-06T03:52:23.896Z,31.60
2022-12-06T03:54:51.429Z,39.37
2022-12-06T03:57:18.443Z,34.10
2022-12-06T03:59:46.302Z,39.00
2022-12-06T04:02:13.353Z,45.10
2022-12-06T04:04:41.496Z,35.67
2022-12-06T04:07:10.312Z,32.03
2022-12-06T04:09:52.373Z,31.10
2022-12-06T04:12:38.571Z,32.90
2022-12-06T04:15:07.085Z,25.67
2022-12-06T04:17:53.038Z,45.70
2022-12-06T04:20:19.963Z,38.47
2022-12-06T04:23:04.988Z,36.57
2022-12-06T04:25:36.640Z,38.17
2022-12-06T04:28:22.645Z,26.70
2022-12-06T04:31:08.244Z,29.00
2022-12-06T04:33:53.667Z,43.83
2022-12-06T04:36:39.038Z,33.10
2022-12-06T04:39:06.354Z,40.83
2022-12-06T04:41:51.881Z,40.50
2022-12-06T04:44:18.867Z,32.33
2022-12-06T04:46:45.859Z,39.37
2022-12-06T04:49:12.819Z,32.27
2022-12-06T04:51:39.795Z,23.53
2022-12-06T04:54:07.259Z,41.50
2022-12-06T04:56:34.628Z,31.47
2022-12-06T04:59:02.239Z,28.50
2022-12-06T05:01:29.243Z,32.60
2022-12-06T05:03:59.138Z,39.73
2022-12-06T05:06:26.147Z,37.13
2022-12-06T05:08:53.023Z,48.60
2022-12-06T05:11:19.984Z,38.20
2022-12-06T05:13:46.871Z,42.80
2022-12-06T05:16:13.923Z,35.30
2022-12-06T05:18:40.868Z,40.33
2022-12-06T05:21:11.999Z,36.40
2022-12-06T05:23:38.973Z,35.40
2022-12-06T05:26:08.570Z,41.67
2022-12-06T05:28:35.503Z,34.60
2022-12-06T05:31:02.499Z,44.60
2022-12-06T05:33:29.757Z,42.57
2022-12-06T05:35:56.915Z,40.43
2022-12-06T05:38:24.694Z,41.97
2022-12-06T05:40:51.805Z,38.70
2022-12-06T05:43:18.681Z,47.80
2022-12-06T05:45:45.683Z,41.67
2022-12-06T05:48:12.665Z,42.17
2022-12-06T05:50:39.656Z,48.70
2022-12-06T05:53:06.588Z,61.57
2022-12-06T05:55:33.508Z,55.93
2022-12-06T05:58:00.394Z,56.03
2022-12-06T06:00:27.441Z,59.70
2022-12-06T06:02:54.466Z,45.80
2022-12-06T06:05:21.495Z,49.93
2022-12-06T06:07:48.535Z,68.73
2022-12-06T06:10:16.370Z,54.27
2022-12-06T06:12:44.729Z,58.87
2022-12-06T06:15:15.892Z,50.10
2022-12-06T06:17:43.432Z,47.40
2022-12-06T06:20:13.740Z,44.70
2022-12-06T06:22:41.967Z,44.33
2022-12-06T06:25:09.342Z,60.47
2022-12-06T06:27:37.986Z,45.10
2022-12-06T06:30:07.475Z,46.13
2022-12-06T06:32:34.995Z,43.07
2022-12-06T06:35:02.162Z,48.40
2022-12-06T06:37:29.335Z,41.60
2022-12-06T06:39:56.451Z,39.13
2022-12-06T06:42:23.516Z,42.67
2022-12-06T06:44:50.456Z,47.20
2022-12-06T06:47:17.337Z,42.23
2022-12-06T06:49:44.176Z,38.43
2022-12-06T06:52:11.045Z,38.37
2022-12-06T06:54:37.998Z,53.20
2022-12-06T06:57:05.058Z,48.13
2022-12-06T06:59:32.114Z,39.03
2022-12-06T07:01:59.167Z,49.20
2022-12-06T07:04:26.105Z,41.87
2022-12-06T07:06:53.022Z,48.67
2022-12-06T07:09:20.041Z,54.37
2022-12-06T07:11:46.957Z,61.17
2022-12-06T07:14:13.816Z,56.10
2022-12-06T07:16:40.805Z,46.47
2022-12-06T07:19:09.326Z,57.73
2022-12-06T07:21:36.297Z,57.73
2022-12-06T07:24:03.229Z,46.27
2022-12-06T07:26:30.220Z,64.97
2022-12-06T07:28:57.943Z,67.10
2022-12-06T07:31:27.192Z,83.83
2022-12-06T07:33:56.618Z,57.90
2022-12-06T07:36:24.391Z,79.47
2022-12-06T07:38:53.242Z,77.47
2022-12-06T07:41:40.052Z,82.83
2022-12-06T07:44:33.771Z,56.20
2022-12-06T07:47:01.064Z,59.60
2022-12-06T07:49:28.346Z,78.87
2022-12-06T07:51:56.050Z,58.37
2022-12-06T07:54:24.278Z,68.67
2022-12-06T07:56:51.267Z,66.83
2022-12-06T07:59:18.461Z,67.07
2022-12-06T08:01:45.539Z,55.43
2022-12-06T08:04:12.605Z,56.10
2022-12-06T08:06:40.379Z,82.43
2022-12-06T08:09:33.181Z,105.33
2022-12-06T08:12:02.989Z,85.13
2022-12-06T08:14:30.344Z,87.63
2022-12-06T08:17:00.162Z,78.17
2022-12-06T08:19:30.184Z,89.40
2022-12-06T08:21:57.163Z,93.37
2022-12-06T08:24:26.025Z,61.30
2022-12-06T08:26:55.088Z,50.10
2022-12-06T08:29:22.941Z,46.70
2022-12-06T08:31:50.147Z,46.17
2022-12-06T08:34:17.626Z,42.87
2022-12-06T08:36:47.205Z,68.17
2022-12-06T08:39:16.642Z,46.20
2022-12-06T08:41:55.314Z,57.83
2022-12-06T08:44:22.729Z,43.23
2022-12-06T08:46:49.730Z,46.17
2022-12-06T08:49:20.688Z,44.97
2022-12-06T08:51:47.826Z,46.90
2022-12-06T08:54:17.100Z,42.47
2022-12-06T08:56:44.636Z,37.50
2022-12-06T08:59:17.241Z,37.40
2022-12-06T09:01:45.182Z,33.97
2022-12-06T09:04:12.957Z,42.40
2022-12-06T09:06:41.873Z,35.77
2022-12-06T09:09:13.808Z,32.67
2022-12-06T09:11:47.805Z,32.97
2022-12-06T09:14:22.304Z,38.17
2022-12-06T09:16:58.319Z,33.03
2022-12-06T09:19:28.319Z,36.17
2022-12-06T09:21:55.478Z,36.77
2022-12-06T09:24:22.728Z,41.33
2022-12-06T09:26:49.964Z,68.90
2022-12-06T09:29:17.817Z,81.17
2022-12-06T09:31:45.122Z,50.33
2022-12-06T09:34:12.955Z,41.77
2022-12-06T09:36:45.200Z,38.43
2022-12-06T09:39:34.008Z,35.43
2022-12-06T09:43:08.160Z,41.53
2022-12-06T09:45:34.788Z,51.47
2022-12-06T09:48:08.435Z,39.27
2022-12-06T09:50:55.790Z,39.83
2022-12-06T09:53:51.917Z,39.10
2022-12-06T09:56:44.281Z,38.27
2022-12-06T09:59:24.507Z,33.37
2022-12-06T10:02:37.191Z,33.53
2022-12-06T10:05:51.834Z,30.87
2022-12-06T10:08:21.987Z,44.03
2022-12-06T10:11:18.618Z,31.03
2022-12-06T10:13:45.626Z,38.07
2022-12-06T10:16:45.058Z,32.23
2022-12-06T10:19:46.017Z,37.23
2022-12-06T10:22:30.231Z,35.47
2022-12-06T10:25:01.898Z,34.23
2022-12-06T10:27:58.379Z,30.87
2022-12-06T10:30:25.642Z,27.43
2022-12-06T10:33:05.414Z,23.93
2022-12-06T10:35:57.164Z,22.33
2022-12-06T10:39:00.594Z,24.90
2022-12-06T10:42:23.132Z,20.83
2022-12-06T10:45:02.473Z,19.80
2022-12-06T10:47:38.168Z,15.93
2022-12-06T10:50:21.806Z,17.93
2022-12-06T10:52:57.227Z,27.60
2022-12-06T10:55:50.070Z,19.73
2022-12-06T10:58:22.868Z,15.97
2022-12-06T11:00:58.732Z,17.07
2022-12-06T11:03:43.263Z,17.07
2022-12-06T11:06:28.539Z,15.60
2022-12-06T11:09:01.149Z,14.60
2022-12-06T11:11:36.024Z,16.90
2022-12-06T11:14:36.183Z,18.00
2022-12-06T11:17:12.126Z,16.60
2022-12-06T11:19:44.227Z,16.27
2022-12-06T11:22:14.110Z,19.60
2022-12-06T11:24:49.383Z,17.17
2022-12-06T11:27:33.292Z,19.13
2022-12-06T11:30:02.738Z,19.47
2022-12-06T11:32:30.142Z,20.17
2022-12-06T11:34:59.387Z,18.13
2022-12-06T11:37:31.876Z,21.07
2022-12-06T11:40:30.595Z,15.47
2022-12-06T11:43:02.537Z,15.83
2022-12-06T11:45:34.658Z,14.93
2022-12-06T11:48:13.967Z,16.87
2022-12-06T11:50:42.586Z,22.23
2022-12-06T11:53:28.348Z,16.23
2022-12-06T11:56:00.863Z,16.57
2022-12-06T11:58:37.829Z,16.57
2022-12-06T12:01:16.369Z,23.10
2022-12-06T12:03:45.083Z,23.37
2022-12-06T12:06:27.358Z,24.47
2022-12-06T12:09:03.079Z,17.17
2022-12-06T12:11:32.744Z,18.30
2022-12-06T12:14:02.806Z,15.07
2022-12-06T12:16:37.367Z,13.50
2022-12-06T12:19:39.320Z,15.23
2022-12-06T12:22:29.181Z,17.23
2022-12-06T12:25:18.436Z,14.73
2022-12-06T12:27:55.209Z,20.37
2022-12-06T12:30:24.552Z,26.43
2022-12-06T12:33:05.411Z,15.30
2022-12-06T12:36:04.411Z,9.60
2022-12-06T12:38:49.297Z,12.83
2022-12-06T12:41:28.254Z,9.13
2022-12-06T12:44:37.201Z,11.07
2022-12-06T12:46:56.979Z,11.17
2022-12-06T12:49:23.971Z,12.23
2022-12-06T12:52:44.651Z,10.60
2022-12-06T12:55:21.223Z,14.87
2022-12-06T12:58:00.094Z,15.63
2022-12-06T13:00:37.485Z,17.63
2022-12-06T13:03:28.544Z,27.43
2022-12-06T13:05:57.570Z,23.60
2022-12-06T13:08:33.553Z,17.93
2022-12-06T13:11:03.128Z,15.20
2022-12-06T13:14:00.312Z,16.43
2022-12-06T13:16:35.362Z,14.03
2022-12-06T13:19:02.772Z,16.70
2022-12-06T13:21:40.473Z,15.40
2022-12-06T13:24:10.455Z,15.07
2022-12-06T13:26:43.263Z,14.63
2022-12-06T13:29:38.127Z,14.17
2022-12-06T13:32:32.347Z,15.23
2022-12-06T13:35:07.489Z,17.33
2022-12-06T13:37:44.576Z,13.90
2022-12-06T13:40:33.501Z,20.27
2022-12-06T13:43:02.735Z,30.43
2022-12-06T13:45:49.899Z,31.47
2022-12-06T13:48:36.558Z,23.23
2022-12-06T13:51:26.077Z,17.47
2022-12-06T13:54:05.209Z,15.60
2022-12-06T13:56:35.120Z,17.83
2022-12-06T13:59:13.023Z,19.43
2022-12-06T14:01:44.124Z,19.03
2022-12-06T14:07:04.488Z,19.70
2022-12-06T14:09:41.654Z,20.43
2022-12-06T14:12:25.046Z,22.40
2022-12-06T14:15:05.825Z,21.13
2022-12-06T14:20:30.349Z,22.37
2022-12-06T14:22:58.200Z,17.60
2022-12-06T14:25:31.747Z,26.47
2022-12-06T14:28:06.105Z,22.30
2022-12-06T14:30:41.087Z,16.60
2022-12-06T14:33:22.254Z,17.03
2022-12-06T14:35:52.202Z,13.40
2022-12-06T14:38:28.333Z,18.23
2022-12-06T14:41:14.391Z,12.73
2022-12-06T14:43:42.432Z,13.80
2022-12-06T14:46:15.546Z,16.47
2022-12-06T14:49:04.769Z,14.07
2022-12-06T14:51:41.027Z,18.47
2022-12-06T14:54:32.699Z,41.13
2022-12-06T14:57:00.495Z,48.20
2022-12-06T15:02:29.101Z,19.30
2022-12-06T15:04:56.165Z,14.27
2022-12-06T15:07:44.579Z,19.07
2022-12-06T15:10:30.148Z,64.10
2022-12-06T15:13:08.145Z,25.73
2022-12-06T15:15:40.208Z,20.77
2022-12-06T15:18:13.318Z,19.10
2022-12-06T15:20:40.787Z,21.97
2022-12-06T15:23:26.111Z,22.37
2022-12-06T15:25:53.278Z,22.50
2022-12-06T15:28:26.932Z,21.23
2022-12-06T15:30:54.392Z,23.10
2022-12-06T15:33:24.404Z,29.93
2022-12-06T15:35:52.070Z,34.60
2022-12-06T15:38:20.967Z,37.03
2022-12-06T15:40:50.581Z,35.77
2022-12-06T15:43:29.150Z,28.50
2022-12-06T15:45:57.522Z,36.43
2022-12-06T15:48:24.487Z,33.47
2022-12-06T15:50:51.471Z,32.77
2022-12-06T15:53:21.188Z,25.10
2022-12-06T15:55:48.265Z,29.43
2022-12-06T15:58:15.284Z,24.43
2022-12-06T16:00:42.685Z,23.03
2022-12-06T16:03:10.036Z,19.13
2022-12-06T16:05:37.087Z,20.97
2022-12-06T16:08:04.461Z,21.30
2022-12-06T16:10:55.641Z,22.57
2022-12-06T16:13:24.465Z,31.33
2022-12-06T16:15:52.703Z,36.80
2022-12-06T16:18:20.074Z,32.13
2022-12-06T16:20:47.624Z,33.50
2022-12-06T16:24:11.397Z,21.23
2022-12-06T16:26:26.987Z,22.43
2022-12-06T16:28:54.353Z,22.17
2022-12-06T16:31:21.354Z,31.00
2022-12-06T16:33:48.370Z,36.10
2022-12-06T16:36:25.744Z,31.20
2022-12-06T16:38:57.723Z,21.20
2022-12-06T16:41:32.075Z,22.00
2022-12-06T16:43:59.018Z,21.23
2022-12-06T16:46:45.753Z,26.37
2022-12-06T16:49:48.366Z,24.93
2022-12-06T16:52:16.754Z,25.37
2022-12-06T16:54:44.189Z,20.20
2022-12-06T16:57:12.647Z,19.13
2022-12-06T16:59:40.651Z,22.20
2022-12-06T17:02:24.314Z,19.90
2022-12-06T17:04:51.235Z,19.83
2022-12-06T17:07:18.374Z,19.70
2022-12-06T17:09:45.338Z,19.27
2022-12-06T17:12:14.984Z,25.33
2022-12-06T17:14:42.533Z,18.77
2022-12-06T17:17:14.926Z,19.97
2022-12-06T17:19:43.330Z,22.93
2022-12-06T17:22:11.884Z,23.60
2022-12-06T17:24:39.272Z,20.53
2022-12-06T17:27:08.795Z,20.43
2022-12-06T17:29:36.253Z,18.80
2022-12-06T17:32:03.172Z,20.80
2022-12-06T17:34:32.806Z,20.63
2022-12-06T17:37:00.702Z,22.37
2022-12-06T17:39:27.642Z,24.13
2022-12-06T17:42:13.393Z,23.37
2022-12-06T17:44:40.506Z,22.83
2022-12-06T17:47:07.385Z,21.40
2022-12-06T17:49:38.402Z,19.13
2022-12-06T17:52:05.795Z,22.93
2022-12-06T17:54:32.913Z,27.83
2022-12-06T17:57:01.108Z,34.03
2022-12-06T17:59:30.338Z,64.30
2022-12-06T18:02:15.616Z,27.07
2022-12-06T18:07:35.526Z,24.27
2022-12-06T18:10:02.699Z,22.17
2022-12-06T18:12:31.806Z,19.40
2022-12-06T18:15:27.399Z,28.90
2022-12-06T18:17:54.480Z,24.73
2022-12-06T18:20:23.917Z,22.40
2022-12-06T18:22:53.913Z,42.17
2022-12-06T18:25:20.858Z,77.17
2022-12-06T18:27:50.163Z,35.20
2022-12-06T18:30:17.608Z,36.83
2022-12-06T18:33:25.402Z,29.57
2022-12-06T18:35:56.453Z,22.93
2022-12-06T18:38:23.429Z,24.97
2022-12-06T18:41:04.214Z,24.93
2022-12-06T18:43:36.262Z,22.50
2022-12-06T18:46:33.315Z,30.23
2022-12-06T18:49:01.035Z,44.03
2022-12-06T18:51:33.013Z,23.13
2022-12-06T18:54:14.284Z,26.03
2022-12-06T18:56:44.941Z,23.30
2022-12-06T18:59:12.464Z,20.93
2022-12-06T19:01:45.828Z,22.77
2022-12-06T19:04:19.615Z,27.40
2022-12-06T19:06:47.194Z,23.87
2022-12-06T19:09:18.663Z,20.63
2022-12-06T19:11:46.408Z,26.73
2022-12-06T19:14:13.942Z,23.27
2022-12-06T19:16:46.386Z,21.53
2022-12-06T19:19:22.698Z,41.47
2022-12-06T19:21:54.178Z,25.73
2022-12-06T19:24:23.791Z,35.83
2022-12-06T19:26:52.400Z,31.47
2022-12-06T19:29:24.494Z,23.63
2022-12-06T19:31:51.923Z,24.23
2022-12-06T19:34:38.421Z,23.17
2022-12-06T19:37:08.577Z,26.83
2022-12-06T19:39:38.352Z,25.27
2022-12-06T19:42:23.653Z,25.40
2022-12-06T19:44:50.625Z,25.77
2022-12-06T19:47:17.570Z,24.07
2022-12-06T19:49:44.521Z,33.63
2022-12-06T19:52:17.571Z,30.57
2022-12-06T19:54:45.116Z,26.47
2022-12-06T19:57:15.496Z,27.87
2022-12-06T19:59:42.566Z,24.53
2022-12-06T20:02:14.848Z,29.17
2022-12-06T20:04:42.314Z,28.23
2022-12-06T20:07:10.130Z,24.27
2022-12-06T20:09:39.949Z,28.87
2022-12-06T20:12:07.607Z,24.50
2022-12-06T20:14:36.286Z,23.40
2022-12-06T20:17:06.680Z,26.67
2022-12-06T20:19:38.106Z,26.03
2022-12-06T20:22:05.389Z,26.47
2022-12-06T20:24:32.973Z,23.83
2022-12-06T20:26:59.998Z,26.83
2022-12-06T20:29:30.163Z,25.83
2022-12-06T20:32:01.208Z,31.43
2022-12-06T20:34:35.011Z,24.73
2022-12-06T20:37:04.668Z,26.10
2022-12-06T20:39:34.899Z,28.43
2022-12-06T20:42:03.327Z,25.27
2022-12-06T20:44:30.894Z,25.67
2022-12-06T20:46:57.988Z,25.47
2022-12-06T20:49:25.120Z,24.00
2022-12-06T20:51:53.933Z,30.23
2022-12-06T20:54:21.812Z,26.77
2022-12-06T20:56:51.717Z,30.73
2022-12-06T20:59:19.698Z,29.63
2022-12-06T21:01:47.268Z,25.67
2022-12-06T21:04:14.984Z,35.30
2022-12-06T21:06:42.244Z,32.73
2022-12-06T21:09:09.490Z,31.70
2022-12-06T21:11:36.528Z,30.47
2022-12-06T21:14:04.426Z,32.30
2022-12-06T21:16:33.473Z,35.00
2022-12-06T21:19:04.722Z,32.77
2022-12-06T21:21:34.567Z,30.47
2022-12-06T21:24:03.225Z,38.27
2022-12-06T21:26:31.377Z,41.80
2022-12-06T21:28:58.491Z,33.17
2022-12-06T21:31:30.662Z,35.17
2022-12-06T21:33:57.890Z,41.77
2022-12-06T21:36:25.545Z,37.20
2022-12-06T21:38:53.630Z,32.83
2022-12-06T21:41:21.018Z,37.53
2022-12-06T21:43:48.554Z,42.10
2022-12-06T21:46:18.887Z,35.60
2022-12-06T21:48:51.237Z,34.83
2022-12-06T21:51:19.142Z,38.60
2022-12-06T21:53:46.359Z,37.00
2022-12-06T21:56:19.649Z,41.43
2022-12-06T21:58:47.343Z,37.87
2022-12-06T22:01:20.581Z,31.93
2022-12-06T22:03:48.926Z,38.10
2022-12-06T22:06:16.646Z,40.03
2022-12-06T22:08:45.092Z,38.37
2022-12-06T22:11:18.065Z,43.30
2022-12-06T22:13:46.356Z,38.83
2022-12-06T22:16:14.287Z,44.40
2022-12-06T22:18:45.617Z,45.50
2022-12-06T22:21:21.686Z,42.03
2022-12-06T22:23:49.029Z,46.20
2022-12-06T22:26:18.472Z,47.40
2022-12-06T22:28:46.263Z,52.63
2022-12-06T22:31:30.021Z,52.80
2022-12-06T22:33:58.114Z,52.13
2022-12-06T22:36:25.312Z,54.17
2022-12-06T22:38:57.092Z,57.97
2022-12-06T22:41:24.647Z,51.73
2022-12-06T22:43:54.008Z,57.73
2022-12-06T22:46:21.780Z,64.47
2022-12-06T22:48:49.199Z,59.73
2022-12-06T22:51:29.856Z,59.60
2022-12-06T22:54:02.320Z,60.07
2022-12-06T22:56:30.426Z,59.67
2022-12-06T22:58:59.167Z,68.23
2022-12-06T23:01:29.178Z,64.63
2022-12-06T23:03:58.583Z,70.03
2022-12-06T23:06:26.004Z,68.67
2022-12-06T23:08:54.184Z,72.53
2022-12-06T23:11:27.890Z,72.57
2022-12-06T23:13:56.221Z,69.40
2022-12-06T23:16:26.104Z,70.93
2022-12-06T23:18:53.303Z,70.87
2022-12-06T23:21:22.933Z,75.40
2022-12-06T23:23:55.335Z,71.43
2022-12-06T23:26:31.677Z,75.47
2022-12-06T23:28:58.921Z,71.07
2022-12-06T23:31:34.514Z,68.97
2022-12-06T23:34:07.076Z,71.13
2022-12-06T23:36:35.307Z,68.30
2022-12-06T23:39:02.846Z,68.00
2022-12-06T23:41:31.152Z,68.30
2022-12-06T23:43:58.998Z,64.87
2022-12-06T23:46:28.788Z,68.97
2022-12-06T23:48:56.732Z,65.17
2022-12-06T23:51:26.453Z,62.70
2022-12-06T23:53:57.021Z,65.43
2022-12-06T23:56:25.453Z,63.70
2022-12-06T23:58:52.884Z,61.97
